Airfield :
LOGIN :

Register | Disclaimer

   EN    FR    IT 

 










Legend :    VFR   Marginal VFR   IFR   Intensive IFR   Very Intensive IFR
Visi :
Ceiling :
>= 8 km
>= 3000ft
5 to 8 km
1000 to 3000 ft
1500m to 5 km
500 to 1000 ft
800 to 1500m
200 to 500 ft
< 800m
< 200 ft
Symbols :   Thunderstorms  Fog  Heavy snow  Heavy precipitations  Wind > 20 kt
SIGMETs :     Misc.  Thunderstorms  Icing  Turbulence  Mountain Waves  Volcanic Ashes







- Airport Elevation : 404 ft
- IATA code : WRO


EPWR - Wroclaw

CURRENT METAR :
  • 191800Z 11005KT 0200 R29/0400N FG OVC001 12/12 Q1016

EXPIRED METARs :
  • 191730Z 08003KT 0300 R29/0600D FG BKN003 11/10 Q1016
  • 191700Z 08003KT 1700 MIFG BR SCT003 11/10 Q1016
  • 191630Z 09002KT 2300 MIFG BR NSC 13/11 Q1016
  • 191600Z 08004KT 3500 BR NSC 13/11 Q1016
  • 191530Z 06003KT 4500 BR NSC 16/13 Q1016

TAF TAF EPWR
Valid from the 19 at 18:00 until the 20 at 18:00 UTC


191730Z 1918/2018 11004KT 0100 FG OVC001
TEMPO 1918/1921 0800 FG SCT003
BECMG 2007/2010 CAVOK
No reported NOTAMs for that airfield.



MET'MAP, your aeronautical weather chart ! - Copyright ORBIFLY December 2007 - Disclaimer

ORBIFLY MET'MAP TEAM :

Programming & Development : Alexandra Zaïnal
Concept & Development : Baudouin d'Aumeries
Co-Development & Prog : Marc-Olivier Méhu
Technical & hardware support : Manuel Goepfert

Contact : metmap@orbifly.com




SOURCES & CREDITS :

   NOAA